Ellwood City, Pennsylvania
Current Conditions -  °F | °C
As of 8:35 PM on Monday 24 Nov 2014 (Local Time) from KBTP Reporting Station
Clear Clear  
Wind Chill: 43°   Ceiling: Unl
Heat Index: 48°   Visibility: 10mi
Dew Point: 36°   Wind: 14mph
Humidity: 62%   Direction: 250°WSW
Pressure: 29.75"   Gusts: 25mph
Location:  40.86°N, 80.29°W
Report Text: KBTP 250135Z AUTO 25012G22KT 10SM CLR 09/02 A2975 RMK AO1
Loading
Personal Weather Stations






























Interactive Weather Map New forecast layout! Learn more

10-Day Weather Forecast

Advertisements
Track Severe Weather on mobile